Data Viewer
| City | State | Eastern Time | Source | Temp | DewPt | RH | BP | 5 Min Precip | Wind Speed | Wind Dir | 5 Min Wind Max | 5 Min Wind Max Dir |
|---|---|---|---|---|---|---|---|---|---|---|---|---|
| Ringwood | NJ | 2026-05-06 14:10 | RAWS | 61 | 59 | 92 | 4 | SW | ||||
| Ringwood | NJ | 2026-05-07 03:10 | RAWS | 47 | 46 | 97 | 1 | N | ||||
| Ringwood | NJ | 2026-05-07 12:10 | RAWS | 59 | 30 | 33 | 5 | NW | ||||
| Ringwood | NJ | 2026-05-07 11:10 | RAWS | 58 | 32 | 37 | 4 | NW | ||||
| Ringwood | NJ | 2026-05-07 10:10 | RAWS | 56 | 32 | 40 | 4 | NW | ||||
| Ringwood | NJ | 2026-05-07 09:10 | RAWS | 53 | 34 | 48 | 5 | WNW | ||||
| Ringwood | NJ | 2026-05-07 08:10 | RAWS | 49 | 45 | 85 | 2 | NNW | ||||
| Ringwood | NJ | 2026-05-07 07:10 | RAWS | 46 | 45 | 96 | 1 | NNE | ||||
| Ringwood | NJ | 2026-05-07 06:10 | RAWS | 45 | 45 | 99 | 0 | NE | ||||
| Ringwood | NJ | 2026-05-07 05:10 | RAWS | 46 | 44 | 94 | 2 | NNW | ||||
| Ringwood | NJ | 2026-05-07 04:10 | RAWS | 47 | 46 | 96 | 1 | NNW | ||||
| Ringwood | NJ | 2026-05-07 02:10 | RAWS | 49 | 47 | 92 | 1 | NW | ||||
| Ringwood | NJ | 2026-05-06 15:10 | RAWS | 60 | 59 | 97 | 4 | SW | ||||
| Ringwood | NJ | 2026-05-07 01:10 | RAWS | 50 | 46 | 86 | 2 | NW | ||||
| Ringwood | NJ | 2026-05-07 00:10 | RAWS | 51 | 47 | 86 | 2 | NNW | ||||
| Ringwood | NJ | 2026-05-06 23:10 | RAWS | 52 | 49 | 89 | 1 | N | ||||
| Ringwood | NJ | 2026-05-06 22:10 | RAWS | 54 | 50 | 88 | 2 | WNW | ||||
| Ringwood | NJ | 2026-05-06 21:10 | RAWS | 56 | 55 | 95 | 2 | N | ||||
| Ringwood | NJ | 2026-05-06 20:10 | RAWS | 61 | 60 | 97 | 2 | S | ||||
| Ringwood | NJ | 2026-05-06 19:10 | RAWS | 61 | 60 | 97 | 2 | SSW | ||||
| Ringwood | NJ | 2026-05-06 18:10 | RAWS | 61 | 60 | 96 | 3 | SSW | ||||
| Ringwood | NJ | 2026-05-06 17:10 | RAWS | 61 | 60 | 96 | 3 | SW | ||||
| Ringwood | NJ | 2026-05-06 16:10 | RAWS | 61 | 60 | 98 | 2 | SSW | ||||
| Ringwood | NJ | 2026-05-07 13:10 | RAWS | 61 | 31 | 32 | 3 | NNW |
data collection created in 0.0043230056762695 (queried in 0.001227) rendered in: 2.9087066650391E-5

